Time;durP1;ratioP1;P1;durP2;ratioP2;P2;SDS_P1;SDS_P2;PMS_P1;PMS_P2;Temp;Humidity;BMP_temperature;BMP_pressure;BME280_temperature;BME280_humidity;BME280_pressure;Samples;Min_cycle;Max_cycle;Signal;HPM_P1;HPM_P2
2022/07/31 00:00:32;;;;;;;14.63;4.60;;;;;;;;;;5095044;28;20444;-68
2022/07/31 00:02:59;;;;;;;6.20;4.27;;;;;;;;;;5095670;27;20570;-68
2022/07/31 00:05:26;;;;;;;5.67;4.00;;;;;;;;;;5098573;28;20757;-69
2022/07/31 00:07:53;;;;;;;6.90;3.77;;;;;;;;;;5086810;28;21045;-68
2022/07/31 00:10:20;;;;;;;6.10;4.53;;;;;;;;;;5090728;28;20558;-68
2022/07/31 00:12:48;;;;;;;9.17;3.40;;;;;;;;;;5097257;28;20471;-68
2022/07/31 00:15:14;;;;;;;7.50;4.70;;;;;;;;;;5094891;27;20863;-68
2022/07/31 00:17:43;;;;;;;7.40;4.20;;;;;;;;;;5102519;28;20835;-68
2022/07/31 00:20:12;;;;;;;6.53;4.00;;;;;;;;;;5094158;28;20455;-68
2022/07/31 00:22:39;;;;;;;6.67;3.80;;;;;;;;;;5101760;27;20572;-68
2022/07/31 00:25:10;;;;;;;6.17;4.40;;;;;;;;;;5094552;28;20475;-69
2022/07/31 00:27:39;;;;;;;5.33;3.80;;;;;;;;;;5093212;28;20459;-68
2022/07/31 00:30:06;;;;;;;4.63;3.63;;;;;;;;;;5080642;28;20554;-68
2022/07/31 00:32:33;;;;;;;6.20;3.53;;;;;;;;;;5094334;28;20945;-68
2022/07/31 00:35:01;;;;;;;6.30;4.03;;;;;;;;;;5109363;27;20443;-68
2022/07/31 00:37:28;;;;;;;6.23;4.33;;;;;;;;;;5109498;27;20511;-68
2022/07/31 00:39:58;;;;;;;9.33;4.10;;;;;;;;;;5112578;27;20459;-69
2022/07/31 00:42:25;;;;;;;12.60;5.00;;;;;;;;;;5099444;28;20880;-68
2022/07/31 00:44:53;;;;;;;8.13;4.23;;;;;;;;;;5095164;28;20509;-68
2022/07/31 00:47:19;;;;;;;6.90;4.13;;;;;;;;;;5108639;27;20554;-68
2022/07/31 00:49:47;;;;;;;4.87;3.73;;;;;;;;;;5093091;28;20465;-68
2022/07/31 00:52:14;;;;;;;5.90;3.90;;;;;;;;;;5094071;28;20939;-68
2022/07/31 00:54:41;;;;;;;5.30;3.37;;;;;;;;;;5094347;28;20470;-68
2022/07/31 00:57:08;;;;;;;7.53;3.10;;;;;;;;;;5112338;27;20518;-68
2022/07/31 00:59:35;;;;;;;6.33;3.60;;;;;;;;;;5106362;28;20829;-68
2022/07/31 01:02:02;;;;;;;6.90;3.70;;;;;;;;;;5103071;27;20447;-68
2022/07/31 01:04:29;;;;;;;5.97;3.50;;;;;;;;;;5115578;27;20450;-68
2022/07/31 01:06:57;;;;;;;6.03;4.23;;;;;;;;;;5109921;27;20447;-68
2022/07/31 01:09:25;;;;;;;6.90;3.67;;;;;;;;;;5116885;27;20447;-68
2022/07/31 01:11:58;;;;;;;6.13;3.23;;;;;;;;;;5102162;28;20456;-68
2022/07/31 01:14:28;;;;;;;4.10;3.37;;;;;;;;;;5107441;28;20462;-68
2022/07/31 01:16:57;;;;;;;4.23;3.50;;;;;;;;;;5116957;27;20447;-68
2022/07/31 01:19:25;;;;;;;9.47;4.17;;;;;;;;;;5114659;27;20454;-68
2022/07/31 01:21:55;;;;;;;6.90;3.63;;;;;;;;;;5110268;27;20438;-68
2022/07/31 01:24:30;;;;;;;6.60;3.80;;;;;;;;;;5100135;28;20927;-68
2022/07/31 01:26:59;;;;;;;9.23;3.97;;;;;;;;;;5097349;28;20459;-68
2022/07/31 01:29:28;;;;;;;3.40;2.83;;;;;;;;;;5097260;28;20458;-68
2022/07/31 01:31:58;;;;;;;4.73;3.43;;;;;;;;;;5112776;27;20750;-68
2022/07/31 01:34:28;;;;;;;6.63;3.80;;;;;;;;;;5099577;28;20520;-68
2022/07/31 01:36:58;;;;;;;5.13;3.50;;;;;;;;;;5106276;27;20763;-68
2022/07/31 01:39:33;;;;;;;8.67;4.60;;;;;;;;;;5113050;28;20476;-68
2022/07/31 01:42:02;;;;;;;8.13;4.00;;;;;;;;;;5089749;28;20452;-68
2022/07/31 01:44:31;;;;;;;5.50;4.20;;;;;;;;;;5110565;27;20454;-68
2022/07/31 01:46:59;;;;;;;6.40;4.77;;;;;;;;;;5106080;28;20538;-68
2022/07/31 01:49:27;;;;;;;8.00;5.00;;;;;;;;;;5096927;27;20554;-69
2022/07/31 01:51:54;;;;;;;8.23;5.10;;;;;;;;;;5112603;27;20511;-68
2022/07/31 01:54:22;;;;;;;8.80;4.87;;;;;;;;;;5097222;28;20487;-68
2022/07/31 01:56:49;;;;;;;8.50;4.33;;;;;;;;;;5096740;28;20435;-68
2022/07/31 01:59:18;;;;;;;8.27;5.27;;;;;;;;;;5097013;28;20451;-68
2022/07/31 02:01:48;;;;;;;10.97;5.50;;;;;;;;;;5110623;28;20446;-68
2022/07/31 02:04:16;;;;;;;7.23;5.20;;;;;;;;;;5114754;27;20819;-68
2022/07/31 02:06:45;;;;;;;6.13;4.60;;;;;;;;;;5116317;27;20442;-68
2022/07/31 02:09:14;;;;;;;9.20;5.10;;;;;;;;;;5105759;28;20576;-68
2022/07/31 02:11:44;;;;;;;11.30;5.50;;;;;;;;;;5096122;28;20443;-68
2022/07/31 02:14:12;;;;;;;7.47;5.10;;;;;;;;;;5096326;28;20919;-68
2022/07/31 02:16:40;;;;;;;6.13;4.60;;;;;;;;;;5112030;27;20546;-68
2022/07/31 02:19:10;;;;;;;5.83;4.70;;;;;;;;;;5104303;27;20454;-68
2022/07/31 02:21:39;;;;;;;4.33;3.77;;;;;;;;;;5096805;27;20518;-68
2022/07/31 02:24:06;;;;;;;8.50;4.30;;;;;;;;;;5095504;28;20478;-68
2022/07/31 02:26:33;;;;;;;5.80;4.40;;;;;;;;;;5096679;28;20451;-68
2022/07/31 02:29:01;;;;;;;5.73;4.70;;;;;;;;;;5110793;27;20474;-68
2022/07/31 02:31:30;;;;;;;9.03;4.10;;;;;;;;;;5096809;28;20902;-68
2022/07/31 02:33:57;;;;;;;9.80;4.83;;;;;;;;;;5099355;27;20439;-68
2022/07/31 02:36:24;;;;;;;5.93;4.00;;;;;;;;;;5115992;27;20874;-68
2022/07/31 02:38:52;;;;;;;6.17;4.57;;;;;;;;;;5096689;28;20447;-68
2022/07/31 02:41:20;;;;;;;8.03;4.40;;;;;;;;;;5101118;28;20477;-68
2022/07/31 02:43:47;;;;;;;5.70;3.90;;;;;;;;;;5097217;28;20480;-68
2022/07/31 02:46:14;;;;;;;6.30;5.10;;;;;;;;;;5096664;28;20455;-68
2022/07/31 02:48:41;;;;;;;5.10;3.97;;;;;;;;;;5110091;27;20457;-68
2022/07/31 02:51:09;;;;;;;5.17;4.67;;;;;;;;;;5111480;27;20462;-68
2022/07/31 02:53:37;;;;;;;5.23;4.10;;;;;;;;;;5100244;27;20525;-68
2022/07/31 02:56:04;;;;;;;7.80;4.67;;;;;;;;;;5096886;28;20558;-69
2022/07/31 02:58:31;;;;;;;10.13;4.07;;;;;;;;;;5103111;27;20454;-69
2022/07/31 03:01:02;;;;;;;7.90;5.33;;;;;;;;;;5095814;28;20459;-69
2022/07/31 03:03:29;;;;;;;6.90;4.70;;;;;;;;;;5094704;28;20551;-69
2022/07/31 03:05:56;;;;;;;6.00;4.70;;;;;;;;;;5111689;27;20450;-68
2022/07/31 03:08:23;;;;;;;5.30;4.60;;;;;;;;;;5115485;27;20935;-68
2022/07/31 03:10:51;;;;;;;6.97;4.77;;;;;;;;;;5100518;28;20455;-68
2022/07/31 03:13:19;;;;;;;7.73;4.20;;;;;;;;;;5097017;28;20462;-68
2022/07/31 03:15:46;;;;;;;10.30;4.80;;;;;;;;;;5096106;27;20519;-68
2022/07/31 03:18:15;;;;;;;6.83;4.50;;;;;;;;;;5111761;27;20442;-68
2022/07/31 03:20:42;;;;;;;7.77;4.93;;;;;;;;;;5103302;27;20943;-68
2022/07/31 03:23:13;;;;;;;6.57;5.10;;;;;;;;;;5095188;28;20640;-68
2022/07/31 03:25:41;;;;;;;9.20;5.27;;;;;;;;;;5103123;28;21060;-68
2022/07/31 03:28:09;;;;;;;6.00;4.40;;;;;;;;;;5094771;28;20451;-68
2022/07/31 03:30:36;;;;;;;7.20;5.60;;;;;;;;;;5094975;28;20486;-68
2022/07/31 03:33:03;;;;;;;6.50;5.10;;;;;;;;;;5107772;27;20457;-68
2022/07/31 03:35:30;;;;;;;8.30;5.57;;;;;;;;;;5106033;28;20464;-68
2022/07/31 03:37:57;;;;;;;10.40;4.77;;;;;;;;;;5095913;28;20443;-68
2022/07/31 03:40:25;;;;;;;12.23;6.77;;;;;;;;;;5103720;28;20514;-68
2022/07/31 03:42:53;;;;;;;7.70;5.47;;;;;;;;;;5086670;28;20484;-68
2022/07/31 03:45:21;;;;;;;7.77;4.37;;;;;;;;;;5094805;28;20439;-68
2022/07/31 03:47:48;;;;;;;8.10;5.00;;;;;;;;;;5094427;28;20873;-68
2022/07/31 03:50:16;;;;;;;5.40;4.90;;;;;;;;;;5095735;28;20589;-68
2022/07/31 03:52:44;;;;;;;7.20;4.40;;;;;;;;;;5094595;28;20451;-69
2022/07/31 03:55:11;;;;;;;8.60;5.23;;;;;;;;;;5095180;28;20456;-68
2022/07/31 03:57:38;;;;;;;5.53;4.90;;;;;;;;;;5093634;28;20435;-69
2022/07/31 04:00:06;;;;;;;8.77;4.70;;;;;;;;;;5104009;27;20454;-68
2022/07/31 04:02:34;;;;;;;10.80;4.90;;;;;;;;;;5109589;27;20530;-68
2022/07/31 04:05:01;;;;;;;5.80;4.90;;;;;;;;;;5095200;28;20563;-68
2022/07/31 04:07:28;;;;;;;5.23;4.20;;;;;;;;;;5097800;27;20927;-68
2022/07/31 04:09:55;;;;;;;7.20;5.23;;;;;;;;;;5098999;28;20871;-68
2022/07/31 04:12:22;;;;;;;5.50;4.57;;;;;;;;;;5095242;28;20458;-68
2022/07/31 04:14:49;;;;;;;6.80;4.40;;;;;;;;;;5100048;28;20457;-68
2022/07/31 04:17:16;;;;;;;6.20;5.57;;;;;;;;;;5106471;27;20455;-68
2022/07/31 04:19:45;;;;;;;5.00;3.93;;;;;;;;;;5101651;28;20436;-68
2022/07/31 04:22:12;;;;;;;5.80;4.20;;;;;;;;;;5093893;28;20553;-68
2022/07/31 04:24:39;;;;;;;5.00;4.20;;;;;;;;;;5113675;27;20994;-68
2022/07/31 04:27:06;;;;;;;7.57;3.83;;;;;;;;;;5098721;28;20497;-68
2022/07/31 04:29:33;;;;;;;8.87;4.73;;;;;;;;;;5102421;28;20467;-68
2022/07/31 04:32:04;;;;;;;6.03;4.80;;;;;;;;;;5094998;28;20447;-68
2022/07/31 04:34:31;;;;;;;5.80;3.93;;;;;;;;;;5094044;28;20524;-68
2022/07/31 04:36:58;;;;;;;8.23;4.30;;;;;;;;;;5106908;28;20495;-68
2022/07/31 04:39:26;;;;;;;8.60;4.47;;;;;;;;;;5114675;27;20458;-68
2022/07/31 04:41:53;;;;;;;7.13;4.67;;;;;;;;;;5098092;28;20451;-68
2022/07/31 04:44:20;;;;;;;6.53;4.70;;;;;;;;;;5098826;28;20983;-68
2022/07/31 04:46:46;;;;;;;7.97;4.70;;;;;;;;;;5112314;27;20431;-69
2022/07/31 04:49:14;;;;;;;10.00;4.43;;;;;;;;;;5113199;27;20475;-68
2022/07/31 04:51:41;;;;;;;6.57;4.60;;;;;;;;;;5097571;28;20745;-68
2022/07/31 04:54:11;;;;;;;8.93;6.20;;;;;;;;;;5106668;28;20459;-68
2022/07/31 04:56:41;;;;;;;10.27;5.87;;;;;;;;;;5097415;28;20522;-68
2022/07/31 04:59:08;;;;;;;7.03;5.23;;;;;;;;;;5100087;28;20467;-68
2022/07/31 05:01:36;;;;;;;12.73;5.23;;;;;;;;;;5103080;28;20525;-68
2022/07/31 05:04:03;;;;;;;11.37;6.07;;;;;;;;;;5097480;28;20518;-68
2022/07/31 05:06:33;;;;;;;11.63;6.03;;;;;;;;;;5101525;28;20529;-68
2022/07/31 05:09:00;;;;;;;6.53;5.00;;;;;;;;;;5115425;27;20451;-68
2022/07/31 05:11:28;;;;;;;6.03;5.00;;;;;;;;;;5090374;28;20436;-68
2022/07/31 05:13:56;;;;;;;11.97;5.40;;;;;;;;;;5110473;28;20485;-68
2022/07/31 05:16:23;;;;;;;6.90;5.30;;;;;;;;;;5096837;28;20511;-68
2022/07/31 05:18:50;;;;;;;5.20;4.50;;;;;;;;;;5092400;28;20459;-68
2022/07/31 05:21:18;;;;;;;8.10;5.90;;;;;;;;;;5111863;27;20844;-69
2022/07/31 05:23:48;;;;;;;8.20;6.13;;;;;;;;;;5096447;28;20525;-68
2022/07/31 05:26:16;;;;;;;5.80;4.90;;;;;;;;;;5096522;28;20443;-68
2022/07/31 05:28:44;;;;;;;8.63;5.17;;;;;;;;;;5099891;28;20451;-69
2022/07/31 05:31:11;;;;;;;7.00;4.50;;;;;;;;;;5116947;27;20481;-68
2022/07/31 05:33:38;;;;;;;8.43;5.47;;;;;;;;;;5106462;27;20452;-69
2022/07/31 05:36:05;;;;;;;9.50;5.43;;;;;;;;;;5097401;28;20478;-68
2022/07/31 05:38:32;;;;;;;8.70;5.70;;;;;;;;;;5097114;28;20863;-68
2022/07/31 05:40:59;;;;;;;13.07;5.90;;;;;;;;;;5108687;27;20800;-68
2022/07/31 05:43:26;;;;;;;6.60;5.47;;;;;;;;;;5101022;28;20486;-68
2022/07/31 05:45:57;;;;;;;9.03;5.60;;;;;;;;;;5097017;28;20455;-68
2022/07/31 05:48:24;;;;;;;7.00;5.03;;;;;;;;;;5104068;27;20543;-68
2022/07/31 05:50:52;;;;;;;8.90;5.80;;;;;;;;;;5094948;28;20452;-68
2022/07/31 05:53:19;;;;;;;6.93;5.63;;;;;;;;;;5097111;27;20448;-68
2022/07/31 05:55:49;;;;;;;8.33;6.10;;;;;;;;;;5097004;28;20460;-68
2022/07/31 05:58:17;;;;;;;7.30;5.13;;;;;;;;;;5096879;28;20471;-68
2022/07/31 06:00:45;;;;;;;7.13;6.43;;;;;;;;;;5105359;28;20548;-68
2022/07/31 06:03:13;;;;;;;6.90;5.20;;;;;;;;;;5103842;28;20476;-68
2022/07/31 06:05:40;;;;;;;8.87;6.30;;;;;;;;;;5112743;27;20524;-68
2022/07/31 06:08:08;;;;;;;8.80;5.50;;;;;;;;;;5099011;28;20491;-68
2022/07/31 06:10:35;;;;;;;10.00;6.30;;;;;;;;;;5097644;28;20471;-69
2022/07/31 06:13:02;;;;;;;6.20;5.60;;;;;;;;;;5104749;28;20488;-68
2022/07/31 06:15:30;;;;;;;5.97;5.37;;;;;;;;;;5096722;28;20527;-68
2022/07/31 06:17:57;;;;;;;6.80;6.10;;;;;;;;;;5102553;28;20806;-68
2022/07/31 06:20:25;;;;;;;6.80;6.20;;;;;;;;;;5110712;27;20447;-68
2022/07/31 06:22:52;;;;;;;9.00;6.27;;;;;;;;;;5102439;27;20810;-68
2022/07/31 06:25:19;;;;;;;7.13;5.67;;;;;;;;;;5094900;27;20479;-68
2022/07/31 06:27:52;;;;;;;6.63;5.93;;;;;;;;;;5108130;27;20481;-69
2022/07/31 06:30:19;;;;;;;9.80;5.13;;;;;;;;;;5107348;28;20432;-68
2022/07/31 06:32:46;;;;;;;9.13;5.83;;;;;;;;;;5095526;28;20452;-68
2022/07/31 06:35:13;;;;;;;7.87;5.97;;;;;;;;;;5095642;28;20448;-68
2022/07/31 06:37:41;;;;;;;6.40;5.47;;;;;;;;;;5094782;28;20460;-68
2022/07/31 06:40:09;;;;;;;7.90;6.10;;;;;;;;;;5095158;28;20458;-68
2022/07/31 06:42:36;;;;;;;11.33;5.27;;;;;;;;;;5095793;28;20455;-68
2022/07/31 06:45:03;;;;;;;10.80;6.13;;;;;;;;;;5087007;28;21040;-68
2022/07/31 06:47:30;;;;;;;7.47;5.90;;;;;;;;;;5095051;28;20447;-68
2022/07/31 06:49:56;;;;;;;7.83;5.57;;;;;;;;;;5096161;28;20487;-68
2022/07/31 06:52:23;;;;;;;7.70;6.73;;;;;;;;;;5115381;27;20459;-68
2022/07/31 06:54:51;;;;;;;10.20;5.40;;;;;;;;;;5097981;27;20456;-68
2022/07/31 06:57:19;;;;;;;9.93;5.87;;;;;;;;;;5087584;28;20483;-68
2022/07/31 06:59:46;;;;;;;6.73;6.03;;;;;;;;;;5094968;28;20464;-68
2022/07/31 07:02:13;;;;;;;8.73;5.63;;;;;;;;;;5094099;28;20568;-68
2022/07/31 07:04:40;;;;;;;9.93;6.10;;;;;;;;;;5094817;28;20491;-68
2022/07/31 07:07:10;;;;;;;7.60;5.80;;;;;;;;;;5094624;28;20491;-68
2022/07/31 07:09:37;;;;;;;9.47;6.20;;;;;;;;;;5094325;28;20447;-68
2022/07/31 07:12:05;;;;;;;10.13;6.30;;;;;;;;;;5094030;28;21053;-68
2022/07/31 07:14:32;;;;;;;6.93;6.10;;;;;;;;;;5102015;28;20459;-68
2022/07/31 07:17:02;;;;;;;7.87;4.97;;;;;;;;;;5094881;28;20946;-68
2022/07/31 07:19:29;;;;;;;7.80;5.23;;;;;;;;;;5094844;28;20451;-68
2022/07/31 07:21:56;;;;;;;8.87;5.00;;;;;;;;;;5103660;28;20455;-68
2022/07/31 07:24:23;;;;;;;5.60;3.93;;;;;;;;;;5094094;28;20529;-68
2022/07/31 07:26:53;;;;;;;7.57;5.03;;;;;;;;;;5094912;27;20554;-68
2022/07/31 07:29:20;;;;;;;6.60;5.30;;;;;;;;;;5111270;27;20492;-68
2022/07/31 07:31:47;;;;;;;6.57;4.70;;;;;;;;;;5103068;28;20456;-68
2022/07/31 07:34:19;;;;;;;14.13;5.57;;;;;;;;;;5094736;28;20459;-69
2022/07/31 07:36:50;;;;;;;5.00;4.50;;;;;;;;;;5109294;27;20459;-69
2022/07/31 07:39:19;;;;;;;5.10;4.60;;;;;;;;;;5094231;28;20546;-70
2022/07/31 07:41:46;;;;;;;5.73;5.13;;;;;;;;;;5095376;28;20890;-68
2022/07/31 07:44:13;;;;;;;9.43;4.90;;;;;;;;;;5100647;27;20475;-68
2022/07/31 07:46:41;;;;;;;7.67;5.53;;;;;;;;;;5104252;27;20461;-68
2022/07/31 07:49:08;;;;;;;9.23;5.50;;;;;;;;;;5096745;27;20444;-69
2022/07/31 07:51:35;;;;;;;6.30;4.23;;;;;;;;;;5102467;28;20498;-69
2022/07/31 07:54:02;;;;;;;6.57;4.30;;;;;;;;;;5101903;28;20443;-68
2022/07/31 07:56:29;;;;;;;5.30;3.87;;;;;;;;;;5090670;28;20456;-68
2022/07/31 07:58:56;;;;;;;5.40;3.60;;;;;;;;;;5097399;27;20717;-68
2022/07/31 08:01:25;;;;;;;8.47;5.30;;;;;;;;;;5093870;28;20475;-68
2022/07/31 08:03:52;;;;;;;6.97;3.70;;;;;;;;;;5101482;28;20479;-68
2022/07/31 08:06:22;;;;;;;4.83;3.20;;;;;;;;;;5113098;27;20459;-69
2022/07/31 08:08:49;;;;;;;10.03;3.43;;;;;;;;;;5113682;27;20438;-69
2022/07/31 08:11:16;;;;;;;5.80;3.93;;;;;;;;;;5094834;28;20508;-69
2022/07/31 08:13:43;;;;;;;5.30;3.73;;;;;;;;;;5097300;28;20531;-68
2022/07/31 08:16:10;;;;;;;5.10;3.67;;;;;;;;;;5105297;28;20450;-69
2022/07/31 08:18:37;;;;;;;4.63;3.27;;;;;;;;;;5111651;27;20448;-69
2022/07/31 08:21:05;;;;;;;5.40;3.40;;;;;;;;;;5096816;28;20558;-69
2022/07/31 08:23:32;;;;;;;4.33;2.73;;;;;;;;;;5096823;28;20488;-69
2022/07/31 08:25:59;;;;;;;5.60;2.93;;;;;;;;;;5097211;28;20775;-69
2022/07/31 08:28:26;;;;;;;5.07;2.97;;;;;;;;;;5095739;28;20470;-69
2022/07/31 08:30:53;;;;;;;6.13;2.23;;;;;;;;;;5104338;27;20455;-70
2022/07/31 08:33:21;;;;;;;3.30;2.33;;;;;;;;;;5096020;28;20470;-70
2022/07/31 08:35:48;;;;;;;5.57;2.60;;;;;;;;;;5097413;28;20836;-69
2022/07/31 08:38:16;;;;;;;4.70;2.80;;;;;;;;;;5112124;28;20490;-70
2022/07/31 08:40:43;;;;;;;3.57;2.20;;;;;;;;;;5114800;28;21059;-69
2022/07/31 08:43:10;;;;;;;6.70;3.10;;;;;;;;;;5097319;28;20816;-68
2022/07/31 08:45:38;;;;;;;3.80;2.50;;;;;;;;;;5096888;28;20972;-68
2022/07/31 08:48:07;;;;;;;4.07;2.63;;;;;;;;;;5096727;28;20551;-69
2022/07/31 08:50:35;;;;;;;5.80;2.67;;;;;;;;;;5105028;27;20750;-68
2022/07/31 08:53:03;;;;;;;6.13;3.00;;;;;;;;;;5103754;28;20469;-68
2022/07/31 08:55:31;;;;;;;3.47;1.70;;;;;;;;;;5110020;27;20448;-68
2022/07/31 08:57:58;;;;;;;2.97;1.77;;;;;;;;;;5103286;27;20468;-69
2022/07/31 09:00:28;;;;;;;3.43;2.00;;;;;;;;;;5102290;27;20470;-69
2022/07/31 09:02:55;;;;;;;7.33;2.63;;;;;;;;;;5102197;28;20855;-69
2022/07/31 09:05:23;;;;;;;3.73;2.00;;;;;;;;;;5116845;27;20862;-69
2022/07/31 09:07:53;;;;;;;2.60;1.77;;;;;;;;;;5091811;28;20459;-69
2022/07/31 09:10:22;;;;;;;6.00;2.20;;;;;;;;;;5102565;27;21004;-69
2022/07/31 09:12:49;;;;;;;5.07;1.87;;;;;;;;;;5100805;28;20453;-69
2022/07/31 09:15:20;;;;;;;3.83;1.57;;;;;;;;;;5096410;28;20463;-68
2022/07/31 09:17:47;;;;;;;3.07;1.80;;;;;;;;;;5100254;28;20836;-68
2022/07/31 09:20:17;;;;;;;4.90;1.40;;;;;;;;;;5097917;28;20447;-68
2022/07/31 09:22:44;;;;;;;3.40;1.63;;;;;;;;;;5096703;28;20747;-69
2022/07/31 09:25:14;;;;;;;3.03;1.40;;;;;;;;;;5111858;27;20455;-69
2022/07/31 09:27:42;;;;;;;4.27;2.23;;;;;;;;;;5089665;28;20460;-70
2022/07/31 09:30:10;;;;;;;3.03;1.60;;;;;;;;;;5105131;28;20451;-69
2022/07/31 09:32:37;;;;;;;6.10;1.80;;;;;;;;;;5094111;28;20551;-69
2022/07/31 09:35:08;;;;;;;4.00;2.47;;;;;;;;;;5095025;28;20512;-69
2022/07/31 09:37:35;;;;;;;3.33;1.47;;;;;;;;;;5095405;28;20534;-69
2022/07/31 09:40:03;;;;;;;5.07;1.70;;;;;;;;;;5095012;28;20574;-69
2022/07/31 09:42:36;;;;;;;3.90;1.60;;;;;;;;;;5094912;28;20546;-69
2022/07/31 09:45:02;;;;;;;4.90;1.80;;;;;;;;;;5094210;28;20895;-69
2022/07/31 09:47:33;;;;;;;3.00;1.77;;;;;;;;;;5094753;28;20586;-69
2022/07/31 09:50:01;;;;;;;4.70;2.00;;;;;;;;;;5094192;28;20459;-69
2022/07/31 09:52:29;;;;;;;3.50;1.80;;;;;;;;;;5093065;28;20857;-69
2022/07/31 09:55:04;;;;;;;4.40;1.60;;;;;;;;;;5093532;28;20566;-69
2022/07/31 09:57:36;;;;;;;4.70;1.57;;;;;;;;;;5086257;28;21170;-69
2022/07/31 10:00:07;;;;;;;4.20;1.60;;;;;;;;;;5082444;28;20448;-69
2022/07/31 10:02:35;;;;;;;3.90;1.70;;;;;;;;;;5095698;28;20509;-69
2022/07/31 10:05:05;;;;;;;5.27;1.83;;;;;;;;;;5094276;28;20502;-70
2022/07/31 10:07:35;;;;;;;2.77;1.50;;;;;;;;;;5093315;28;20699;-69
2022/07/31 10:10:03;;;;;;;4.67;1.60;;;;;;;;;;5093064;28;20489;-69
2022/07/31 10:12:31;;;;;;;3.53;1.67;;;;;;;;;;5093074;28;20447;-69
2022/07/31 10:15:07;;;;;;;3.20;1.40;;;;;;;;;;5094070;28;20495;-69
2022/07/31 10:17:46;;;;;;;3.70;2.47;;;;;;;;;;5092775;28;20432;-69
2022/07/31 10:20:16;;;;;;;5.10;1.70;;;;;;;;;;5094958;28;20447;-69
2022/07/31 10:22:44;;;;;;;2.80;1.50;;;;;;;;;;5095358;28;20510;-69
2022/07/31 10:25:12;;;;;;;4.43;2.10;;;;;;;;;;5093317;28;20488;-69
2022/07/31 10:27:40;;;;;;;4.90;1.90;;;;;;;;;;5093555;28;20462;-69
2022/07/31 10:30:14;;;;;;;4.87;1.70;;;;;;;;;;5085791;28;20554;-70
2022/07/31 10:32:45;;;;;;;5.37;2.60;;;;;;;;;;5075240;28;20535;-70
2022/07/31 10:35:16;;;;;;;7.00;2.10;;;;;;;;;;5073963;28;20771;-70
2022/07/31 10:37:45;;;;;;;4.67;2.10;;;;;;;;;;5073559;28;20449;-69
2022/07/31 10:40:23;;;;;;;3.67;2.00;;;;;;;;;;5071692;28;20487;-69
2022/07/31 10:42:52;;;;;;;7.67;3.97;;;;;;;;;;5074607;28;20459;-69
2022/07/31 10:45:19;;;;;;;3.87;1.70;;;;;;;;;;5074275;28;20460;-69
2022/07/31 10:47:57;;;;;;;3.23;1.73;;;;;;;;;;5073122;28;20456;-69
2022/07/31 10:50:25;;;;;;;3.53;2.17;;;;;;;;;;5076506;28;20495;-69
2022/07/31 10:52:53;;;;;;;6.10;2.23;;;;;;;;;;5074366;28;21216;-70
2022/07/31 10:55:21;;;;;;;3.23;2.00;;;;;;;;;;5074271;28;20461;-70
2022/07/31 10:57:53;;;;;;;3.60;1.80;;;;;;;;;;5073152;28;20456;-68
2022/07/31 11:00:22;;;;;;;3.50;1.73;;;;;;;;;;5074907;28;20440;-68
2022/07/31 11:02:49;;;;;;;3.20;1.80;;;;;;;;;;5074120;28;20895;-71
2022/07/31 11:05:20;;;;;;;3.07;1.50;;;;;;;;;;5072333;28;20452;-71
2022/07/31 11:07:47;;;;;;;3.03;1.80;;;;;;;;;;5072074;28;20529;-68
2022/07/31 11:10:16;;;;;;;4.73;2.20;;;;;;;;;;5071769;28;20676;-70
2022/07/31 11:12:43;;;;;;;5.63;1.87;;;;;;;;;;5072086;28;20468;-70
2022/07/31 11:15:21;;;;;;;11.17;2.07;;;;;;;;;;5073099;28;20490;-70
2022/07/31 11:17:48;;;;;;;2.93;1.80;;;;;;;;;;5072587;28;20446;-70
2022/07/31 11:20:20;;;;;;;5.70;2.23;;;;;;;;;;5072911;28;20484;-70
2022/07/31 11:22:53;;;;;;;4.67;2.03;;;;;;;;;;5083505;27;20455;-70
2022/07/31 11:25:21;;;;;;;5.97;2.80;;;;;;;;;;5095564;28;20460;-70
2022/07/31 11:27:48;;;;;;;7.77;2.90;;;;;;;;;;5096174;28;21077;-69
2022/07/31 11:30:15;;;;;;;5.27;1.93;;;;;;;;;;5104821;27;20470;-71
2022/07/31 11:32:47;;;;;;;4.40;2.10;;;;;;;;;;5082859;28;20894;-71
2022/07/31 11:35:24;;;;;;;2.93;1.87;;;;;;;;;;5087111;28;20463;-69
2022/07/31 11:37:51;;;;;;;5.17;2.00;;;;;;;;;;5079257;28;20485;-71
2022/07/31 11:40:19;;;;;;;4.07;2.03;;;;;;;;;;5078845;28;20499;-70
2022/07/31 11:42:46;;;;;;;4.87;2.67;;;;;;;;;;5084123;28;21013;-70
2022/07/31 11:45:15;;;;;;;3.73;2.17;;;;;;;;;;5098392;28;20912;-70
2022/07/31 11:47:43;;;;;;;5.20;2.80;;;;;;;;;;5092730;28;20547;-70
2022/07/31 11:50:11;;;;;;;9.90;2.43;;;;;;;;;;5081110;28;21141;-71
2022/07/31 11:52:42;;;;;;;7.23;3.20;;;;;;;;;;5087634;28;20487;-71
2022/07/31 11:55:12;;;;;;;4.00;2.30;;;;;;;;;;5088169;28;20467;-70
2022/07/31 11:57:39;;;;;;;6.23;2.70;;;;;;;;;;5084548;28;20904;-71
2022/07/31 12:00:13;;;;;;;2.90;2.20;;;;;;;;;;5093123;28;20459;-69
2022/07/31 12:02:41;;;;;;;9.10;2.27;;;;;;;;;;5107858;27;20770;-73
2022/07/31 12:05:15;;;;;;;3.40;2.23;;;;;;;;;;5099804;27;20486;-69
2022/07/31 12:07:43;;;;;;;4.00;3.00;;;;;;;;;;5111685;27;20449;-69
2022/07/31 12:10:11;;;;;;;4.10;2.60;;;;;;;;;;5111003;27;20557;-71
2022/07/31 12:12:39;;;;;;;3.73;2.60;;;;;;;;;;5107822;28;20767;-70
2022/07/31 12:15:17;;;;;;;3.00;1.73;;;;;;;;;;5092842;28;21038;-71
2022/07/31 12:17:44;;;;;;;4.23;2.20;;;;;;;;;;5113070;27;20557;-71
2022/07/31 12:20:12;;;;;;;3.57;1.80;;;;;;;;;;5087551;28;21117;-71
2022/07/31 12:22:40;;;;;;;4.60;2.10;;;;;;;;;;5100507;27;20509;-71
2022/07/31 12:25:11;;;;;;;3.27;1.70;;;;;;;;;;5093131;28;20564;-69
2022/07/31 12:27:39;;;;;;;3.43;1.80;;;;;;;;;;5084373;28;20471;-71
2022/07/31 12:30:15;;;;;;;3.67;2.10;;;;;;;;;;5098451;28;20545;-70
2022/07/31 12:32:43;;;;;;;6.27;2.47;;;;;;;;;;5078050;28;20538;-71
2022/07/31 12:35:10;;;;;;;4.23;1.80;;;;;;;;;;5091109;28;20591;-70
2022/07/31 12:37:43;;;;;;;3.57;2.10;;;;;;;;;;5093003;28;20452;-70
2022/07/31 12:40:22;;;;;;;4.70;2.20;;;;;;;;;;5091117;28;20513;-70
2022/07/31 12:42:49;;;;;;;4.33;2.03;;;;;;;;;;5107786;27;20451;-69
2022/07/31 12:45:16;;;;;;;6.37;2.17;;;;;;;;;;5091858;28;20506;-69
2022/07/31 12:47:43;;;;;;;5.20;2.27;;;;;;;;;;5104138;28;20464;-69
2022/07/31 12:50:10;;;;;;;4.60;1.77;;;;;;;;;;5099508;27;20464;-69
2022/07/31 12:52:37;;;;;;;4.27;1.87;;;;;;;;;;5099449;27;20435;-69
2022/07/31 12:55:04;;;;;;;5.33;1.80;;;;;;;;;;5094848;27;20455;-69
2022/07/31 12:57:32;;;;;;;4.40;2.23;;;;;;;;;;5093405;28;20452;-70
2022/07/31 13:00:02;;;;;;;3.50;1.77;;;;;;;;;;5092915;28;20482;-69
2022/07/31 13:02:30;;;;;;;3.23;1.80;;;;;;;;;;5106170;28;20476;-69
2022/07/31 13:04:57;;;;;;;3.20;2.03;;;;;;;;;;5097358;28;20548;-69
2022/07/31 13:07:23;;;;;;;3.07;2.17;;;;;;;;;;5096045;28;20762;-69
2022/07/31 13:09:50;;;;;;;4.33;1.90;;;;;;;;;;5091497;28;20814;-70
2022/07/31 13:12:17;;;;;;;2.57;1.77;;;;;;;;;;5096268;28;20804;-69
2022/07/31 13:14:45;;;;;;;3.47;2.00;;;;;;;;;;5095780;28;20931;-69
2022/07/31 13:17:15;;;;;;;8.00;2.47;;;;;;;;;;5103083;28;20457;-69
2022/07/31 13:19:42;;;;;;;6.97;2.73;;;;;;;;;;5110129;27;20448;-70
2022/07/31 13:22:09;;;;;;;3.97;2.10;;;;;;;;;;5094267;28;20444;-69
2022/07/31 13:24:36;;;;;;;6.00;2.23;;;;;;;;;;5105650;27;20565;-69
2022/07/31 13:27:03;;;;;;;4.83;2.13;;;;;;;;;;5106152;28;20470;-69
2022/07/31 13:29:30;;;;;;;4.23;1.87;;;;;;;;;;5102993;27;20462;-69
2022/07/31 13:31:57;;;;;;;3.03;2.10;;;;;;;;;;5101613;28;20450;-69
2022/07/31 13:34:24;;;;;;;3.53;2.10;;;;;;;;;;5094845;28;20826;-69
2022/07/31 13:36:51;;;;;;;4.30;2.50;;;;;;;;;;5094783;28;20774;-69
2022/07/31 13:39:18;;;;;;;4.07;2.27;;;;;;;;;;5102496;27;20443;-69
2022/07/31 13:41:45;;;;;;;4.30;2.10;;;;;;;;;;5093081;28;20459;-69
2022/07/31 13:44:15;;;;;;;5.50;1.97;;;;;;;;;;5095742;28;20576;-70
2022/07/31 13:46:42;;;;;;;6.13;2.30;;;;;;;;;;5096227;28;20451;-69
2022/07/31 13:49:10;;;;;;;3.63;2.03;;;;;;;;;;5094277;28;20455;-70
2022/07/31 13:51:37;;;;;;;4.10;2.30;;;;;;;;;;5094601;28;20919;-69
2022/07/31 13:54:04;;;;;;;6.17;1.87;;;;;;;;;;5096650;28;20535;-69
2022/07/31 13:56:31;;;;;;;4.70;2.10;;;;;;;;;;5095958;27;20911;-69
2022/07/31 13:58:58;;;;;;;3.57;2.40;;;;;;;;;;5103392;27;20447;-69
2022/07/31 14:01:25;;;;;;;4.73;2.57;;;;;;;;;;5099630;28;20450;-69
2022/07/31 14:03:52;;;;;;;4.90;3.10;;;;;;;;;;5094542;28;20800;-69
2022/07/31 14:06:19;;;;;;;6.43;2.17;;;;;;;;;;5106094;27;20471;-69
2022/07/31 14:08:46;;;;;;;3.77;2.10;;;;;;;;;;5100709;27;20730;-69
2022/07/31 14:11:13;;;;;;;3.10;2.30;;;;;;;;;;5086746;28;20496;-70
2022/07/31 14:13:41;;;;;;;3.80;2.13;;;;;;;;;;5087499;28;20480;-70
2022/07/31 14:16:07;;;;;;;6.50;2.60;;;;;;;;;;5092886;28;20451;-69
2022/07/31 14:18:37;;;;;;;3.90;1.90;;;;;;;;;;5105383;27;20447;-69
2022/07/31 14:21:06;;;;;;;3.17;2.83;;;;;;;;;;5112089;27;20503;-69
2022/07/31 14:23:34;;;;;;;4.80;2.57;;;;;;;;;;5096737;28;20485;-69
2022/07/31 14:26:02;;;;;;;3.43;2.03;;;;;;;;;;5114619;27;20458;-69
2022/07/31 14:28:29;;;;;;;3.93;2.60;;;;;;;;;;5094358;27;20444;-69
2022/07/31 14:30:56;;;;;;;3.03;2.30;;;;;;;;;;5098088;28;20711;-69
2022/07/31 14:33:23;;;;;;;4.63;2.70;;;;;;;;;;5094126;28;20453;-69
2022/07/31 14:35:50;;;;;;;4.77;2.20;;;;;;;;;;5094492;28;20981;-70
2022/07/31 14:38:17;;;;;;;4.40;2.33;;;;;;;;;;5094635;28;20472;-69
2022/07/31 14:40:45;;;;;;;4.93;2.60;;;;;;;;;;5092327;28;20528;-70
2022/07/31 14:43:14;;;;;;;7.40;2.77;;;;;;;;;;5102080;27;20435;-70
2022/07/31 14:45:43;;;;;;;4.03;1.93;;;;;;;;;;5111024;27;20867;-70
2022/07/31 14:48:10;;;;;;;4.50;2.10;;;;;;;;;;5095433;28;20529;-69